Time;durP1;ratioP1;P1;durP2;ratioP2;P2;SDS_P1;SDS_P2;PMS_P1;PMS_P2;Temp;Humidity;BMP_temperature;BMP_pressure;BME280_temperature;BME280_humidity;BME280_pressure;Samples;Min_cycle;Max_cycle;Signal;HPM_P1;HPM_P2
2022/02/15 00:00:17;;;;;;;32.00;18.13;;;;;;;4.04;65.81;100473.73;1433060;90;21804;-86
2022/02/15 00:02:43;;;;;;;28.40;15.27;;;;;;;4.09;65.56;100476.52;1417126;90;22887;-86
2022/02/15 00:05:11;;;;;;;29.13;18.00;;;;;;;4.14;65.45;100479.64;1434806;90;21892;-85
2022/02/15 00:07:38;;;;;;;29.33;15.90;;;;;;;4.23;65.33;100477.69;1432489;90;21888;-85
2022/02/15 00:10:08;;;;;;;28.03;17.43;;;;;;;4.23;65.33;100477.69;1437049;90;22762;-85
2022/02/15 00:12:37;;;;;;;27.30;17.20;;;;;;;4.24;65.35;100473.67;1435286;89;21761;-86
2022/02/15 00:15:11;;;;;;;26.33;15.57;;;;;;;4.28;65.18;100476.43;1436666;89;21965;-87
2022/02/15 00:17:41;;;;;;;27.77;16.03;;;;;;;4.31;65.25;100468.84;1435107;90;21997;-87
2022/02/15 00:20:11;;;;;;;30.87;17.37;;;;;;;4.30;65.51;100465.86;1426153;90;22032;-87
2022/02/15 00:22:38;;;;;;;32.75;17.65;;;;;;;4.30;65.51;100465.86;1421108;91;22025;-86
2022/02/15 00:25:07;;;;;;;29.43;18.13;;;;;;;4.21;66.06;100454.72;1439588;91;21390;-86
2022/02/15 00:27:34;;;;;;;31.73;18.53;;;;;;;4.21;66.06;100454.72;1436417;90;23275;-86
2022/02/15 00:30:01;;;;;;;29.70;17.77;;;;;;;4.23;66.10;100463.28;1425029;90;23869;-87
2022/02/15 00:32:29;;;;;;;28.60;17.73;;;;;;;4.20;66.19;100460.87;1436131;90;21790;-85
2022/02/15 00:34:56;;;;;;;27.87;17.80;;;;;;;4.20;66.19;100460.87;1425659;90;22942;-84
2022/02/15 00:37:23;;;;;;;32.37;17.10;;;;;;;4.23;66.15;100456.73;1416352;91;21808;-85
2022/02/15 00:39:50;;;;;;;27.17;16.57;;;;;;;4.23;66.15;100456.73;1416248;91;22136;-85
2022/02/15 00:42:17;;;;;;;24.90;15.60;;;;;;;4.26;65.68;100458.69;1414513;91;22974;-85
2022/02/15 00:44:44;;;;;;;31.17;16.13;;;;;;;4.31;65.60;100447.88;1430925;91;22231;-86
2022/02/15 00:47:11;;;;;;;29.40;16.70;;;;;;;4.32;65.34;100440.40;1435859;91;21870;-86
2022/02/15 00:49:38;;;;;;;24.77;15.83;;;;;;;4.36;65.42;100432.67;1433754;90;22885;-85
2022/02/15 00:52:06;;;;;;;29.47;17.10;;;;;;;4.44;65.16;100440.84;1418802;89;21930;-86
2022/02/15 00:54:33;;;;;;;29.57;16.00;;;;;;;4.44;65.16;100440.84;1412969;91;21855;-87
2022/02/15 00:57:00;;;;;;;27.67;15.53;;;;;;;4.47;65.34;100430.14;1428988;91;21931;-86
2022/02/15 00:59:27;;;;;;;31.07;16.90;;;;;;;4.47;65.34;100430.14;1433294;90;22501;-86
2022/02/15 01:01:55;;;;;;;31.47;17.60;;;;;;;4.44;65.24;100423.81;1419955;90;23414;-87
2022/02/15 01:04:22;;;;;;;25.67;16.70;;;;;;;4.47;65.68;100424.89;1402515;92;24152;-86
2022/02/15 01:06:49;;;;;;;28.80;16.00;;;;;;;4.44;65.53;100415.94;1384740;91;22504;-86
2022/02/15 01:09:16;;;;;;;33.57;18.17;;;;;;;4.44;65.53;100415.94;1425063;91;21946;-86
2022/02/15 01:11:43;;;;;;;28.93;16.93;;;;;;;4.40;65.30;100407.95;1421624;91;22358;-86
2022/02/15 01:14:10;;;;;;;27.70;16.60;;;;;;;4.44;65.18;100412.49;1425631;90;21833;-86
2022/02/15 01:16:37;;;;;;;25.00;15.93;;;;;;;4.44;65.18;100412.49;1425660;88;23009;-86
2022/02/15 01:19:08;;;;;;;30.83;16.80;;;;;;;4.44;64.96;100413.32;1409629;91;21960;-87
2022/02/15 01:21:35;;;;;;;27.03;16.10;;;;;;;4.44;65.05;100410.70;1417310;91;21826;-86
2022/02/15 01:24:02;;;;;;;32.07;18.37;;;;;;;4.44;65.05;100410.70;1441403;90;22868;-87
2022/02/15 01:26:29;;;;;;;29.60;17.50;;;;;;;4.46;65.70;100411.44;1435197;90;22037;-87
2022/02/15 01:28:57;;;;;;;32.83;18.93;;;;;;;4.40;65.92;100401.39;1434309;90;22248;-86
2022/02/15 01:31:24;;;;;;;28.57;17.37;;;;;;;4.40;65.92;100401.39;1450377;89;22108;-86
2022/02/15 01:33:51;;;;;;;33.70;18.43;;;;;;;4.34;65.73;100404.42;1434506;90;23202;-86
2022/02/15 01:36:18;;;;;;;36.20;19.27;;;;;;;4.32;66.03;100405.02;1438346;90;22087;-86
2022/02/15 01:38:45;;;;;;;34.13;19.27;;;;;;;4.28;65.79;100401.76;1441839;90;21840;-86
2022/02/15 01:41:13;;;;;;;27.77;17.20;;;;;;;4.22;66.44;100398.74;1446632;90;22184;-86
2022/02/15 01:43:43;;;;;;;30.93;18.03;;;;;;;4.22;66.44;100398.74;1445419;90;22890;-86
2022/02/15 01:46:11;;;;;;;28.27;17.27;;;;;;;4.19;66.45;100393.72;1431090;90;22129;-86
2022/02/15 01:48:39;;;;;;;31.17;19.80;;;;;;;4.19;66.83;100394.55;1434129;90;22058;-86
2022/02/15 01:51:07;;;;;;;29.27;17.83;;;;;;;4.14;67.02;100390.58;1447580;90;22250;-86
2022/02/15 01:53:34;;;;;;;30.90;17.57;;;;;;;4.10;67.10;100385.20;1443384;89;21889;-86
2022/02/15 01:56:02;;;;;;;31.47;16.23;;;;;;;4.06;67.51;100375.42;1440165;88;21950;-87
2022/02/15 01:58:29;;;;;;;27.43;17.17;;;;;;;4.06;67.51;100375.42;1444141;90;22077;-85
2022/02/15 02:00:56;;;;;;;36.63;19.30;;;;;;;4.06;67.43;100377.56;1438043;90;22827;-86
2022/02/15 02:03:23;;;;;;;31.07;18.03;;;;;;;4.06;67.43;100377.56;1451099;89;22151;-87
2022/02/15 02:05:51;;;;;;;31.10;17.70;;;;;;;4.05;67.42;100378.48;1446624;89;22084;-87
2022/02/15 02:08:21;;;;;;;30.93;19.13;;;;;;;4.04;67.76;100381.23;1424254;90;23172;-87
2022/02/15 02:10:50;;;;;;;26.87;16.45;;;;;;;4.05;67.18;100377.17;1443195;90;22136;-87
2022/02/15 02:13:37;;;;;;;30.87;19.00;;;;;;;4.01;67.27;100374.42;1440074;90;21605;-88
2022/02/15 02:16:05;;;;;;;28.63;17.20;;;;;;;4.02;67.08;100368.70;1432208;89;21957;-88
2022/02/15 02:18:32;;;;;;;29.70;17.07;;;;;;;4.02;67.08;100368.70;1436808;90;22665;-88
2022/02/15 02:21:05;;;;;;;28.37;16.60;;;;;;;4.06;67.07;100373.63;1447949;89;22692;-88
2022/02/15 02:23:34;;;;;;;26.97;17.17;;;;;;;4.13;66.98;100376.65;1448040;89;22196;-88
2022/02/15 02:26:01;;;;;;;25.67;16.40;;;;;;;4.14;67.28;100377.48;1407978;90;22013;-87
2022/02/15 02:28:31;;;;;;;27.43;16.60;;;;;;;4.20;67.00;100374.42;1435351;89;22029;-88
2022/02/15 02:30:58;;;;;;;26.97;16.17;;;;;;;4.20;67.00;100374.42;1426774;91;21930;-87
2022/02/15 02:33:31;;;;;;;27.23;16.90;;;;;;;4.22;67.19;100369.92;1432612;90;22126;-88
2022/02/15 02:36:00;;;;;;;26.27;16.90;;;;;;;4.22;67.19;100369.92;1450207;89;23938;-85
2022/02/15 02:38:27;;;;;;;32.17;17.00;;;;;;;4.22;67.13;100378.62;1450748;89;21866;-85
2022/02/15 02:40:55;;;;;;;30.20;15.93;;;;;;;4.25;67.20;100372.33;1446417;89;22895;-85
2022/02/15 02:43:22;;;;;;;28.87;16.90;;;;;;;4.27;67.29;100383.55;1447552;89;22673;-88
2022/02/15 02:45:49;;;;;;;30.63;17.07;;;;;;;4.28;67.40;100378.66;1439145;89;21915;-87
2022/02/15 02:48:17;;;;;;;28.03;16.43;;;;;;;4.25;67.30;100367.09;1420684;91;22097;-88
2022/02/15 02:50:44;;;;;;;25.77;15.43;;;;;;;4.31;67.60;100375.82;1433446;91;21827;-87
2022/02/15 02:53:11;;;;;;;28.37;16.30;;;;;;;4.31;67.60;100375.82;1432675;90;22012;-87
2022/02/15 02:55:39;;;;;;;27.20;18.10;;;;;;;4.27;67.80;100363.89;1453085;89;21823;-88
2022/02/15 02:58:06;;;;;;;27.30;16.47;;;;;;;4.27;67.80;100363.89;1427860;91;21904;-88
2022/02/15 03:00:33;;;;;;;27.57;15.70;;;;;;;4.25;68.60;100377.56;1433064;90;23294;-85
2022/02/15 03:03:07;;;;;;;29.77;17.07;;;;;;;4.25;68.60;100377.56;1448390;89;22041;-85
2022/02/15 03:05:30;;;;;;;29.43;18.03;;;;;;;4.25;68.30;100374.95;1450113;89;22090;-85
2022/02/15 03:07:57;;;;;;;29.97;16.63;;;;;;;4.22;68.98;100377.78;1446999;90;21961;-85
2022/02/15 03:10:24;;;;;;;28.40;16.20;;;;;;;4.21;68.80;100379.58;1449829;88;23190;-85
2022/02/15 03:12:51;;;;;;;30.07;18.47;;;;;;;4.18;69.13;100373.72;1455279;89;22996;-87
2022/02/15 03:15:19;;;;;;;26.87;17.03;;;;;;;4.12;69.60;100378.08;1434335;90;21821;-87
2022/02/15 03:17:46;;;;;;;30.47;17.07;;;;;;;4.12;69.60;100378.08;1439912;89;22936;-87
2022/02/15 03:20:13;;;;;;;27.80;17.60;;;;;;;4.13;69.17;100375.81;1449020;90;22957;-87
2022/02/15 03:22:40;;;;;;;31.27;18.67;;;;;;;4.04;69.89;100363.73;1452224;90;21799;-87
2022/02/15 03:25:08;;;;;;;28.47;17.77;;;;;;;4.02;70.03;100365.61;1441762;89;22112;-88
2022/02/15 03:27:35;;;;;;;28.50;17.77;;;;;;;4.00;70.94;100363.59;1453625;90;22018;-87
2022/02/15 03:30:03;;;;;;;32.57;19.00;;;;;;;4.00;70.94;100363.59;1438593;90;21934;-87
2022/02/15 03:32:30;;;;;;;27.07;16.00;;;;;;;4.01;70.41;100353.47;1433590;90;22084;-87
2022/02/15 03:35:02;;;;;;;24.43;15.50;;;;;;;4.09;70.29;100362.11;1452677;89;22885;-88
2022/02/15 03:37:29;;;;;;;26.93;16.47;;;;;;;4.11;70.53;100363.29;1456462;89;21906;-87
2022/02/15 03:39:56;;;;;;;33.90;17.90;;;;;;;4.04;71.75;100345.39;1450286;89;21864;-88
2022/02/15 03:45:09;;;;;;;24.77;15.20;;;;;;;3.99;72.65;100351.42;1452554;90;21911;-85
2022/02/15 03:47:36;;;;;;;30.23;18.00;;;;;;;3.99;72.65;100351.42;1443236;89;21806;-85
2022/02/15 03:50:04;;;;;;;25.20;16.67;;;;;;;3.98;71.93;100357.61;1449339;90;22816;-84
2022/02/15 03:52:31;;;;;;;27.07;17.43;;;;;;;3.96;72.06;100352.95;1449144;89;21823;-84
2022/02/15 03:54:58;;;;;;;25.90;15.83;;;;;;;3.96;72.06;100352.95;1456517;87;21957;-84
2022/02/15 03:57:25;;;;;;;30.83;18.67;;;;;;;3.94;74.46;100353.55;1449760;89;21889;-84
2022/02/15 03:59:52;;;;;;;24.50;16.90;;;;;;;3.93;73.65;100361.49;1437161;89;21846;-85
2022/02/15 04:02:19;;;;;;;27.60;16.30;;;;;;;3.94;73.43;100378.87;1420617;91;21913;-84
2022/02/15 04:04:46;;;;;;;25.20;16.10;;;;;;;3.96;72.99;100367.83;1422725;91;21875;-83
2022/02/15 04:07:13;;;;;;;32.57;17.07;;;;;;;3.97;73.67;100364.25;1429006;91;21810;-84
2022/02/15 04:09:40;;;;;;;29.07;18.10;;;;;;;3.95;73.79;100365.68;1436843;88;21840;-84
2022/02/15 04:12:08;;;;;;;24.50;15.10;;;;;;;3.95;73.79;100365.68;1434347;89;22933;-84
2022/02/15 04:14:35;;;;;;;31.40;16.17;;;;;;;3.96;73.80;100366.03;1431653;90;21761;-85
2022/02/15 04:17:02;;;;;;;30.07;17.27;;;;;;;3.96;73.80;100366.03;1441940;89;21817;-84
2022/02/15 04:19:30;;;;;;;27.80;16.63;;;;;;;3.96;73.80;100356.88;1454850;87;21898;-83
2022/02/15 04:21:57;;;;;;;27.53;17.07;;;;;;;4.01;73.14;100361.33;1443296;89;21848;-86
2022/02/15 04:24:24;;;;;;;27.30;16.10;;;;;;;4.04;73.22;100366.82;1436025;90;23323;-85
2022/02/15 04:26:51;;;;;;;24.27;15.63;;;;;;;4.11;73.46;100362.81;1429767;90;21834;-85
2022/02/15 04:29:18;;;;;;;32.47;17.33;;;;;;;4.11;73.46;100362.81;1427713;91;21903;-86
2022/02/15 04:31:46;;;;;;;30.53;17.00;;;;;;;4.16;72.76;100367.74;1438851;89;22777;-85
2022/02/15 04:34:14;;;;;;;23.33;15.63;;;;;;;4.17;73.69;100366.78;1440615;90;22066;-86
2022/02/15 04:36:43;;;;;;;26.00;16.23;;;;;;;4.17;73.69;100366.78;1440435;89;21899;-86
2022/02/15 04:39:12;;;;;;;25.97;15.63;;;;;;;4.14;73.31;100356.52;1440509;90;21815;-83
2022/02/15 04:41:41;;;;;;;25.33;16.50;;;;;;;4.12;73.13;100360.58;1447344;89;21896;-83
2022/02/15 04:44:08;;;;;;;26.93;15.13;;;;;;;4.12;73.13;100360.58;1439211;89;22971;-83
2022/02/15 04:46:35;;;;;;;29.67;15.63;;;;;;;4.17;73.50;100357.62;1438477;90;22927;-83
2022/02/15 04:49:03;;;;;;;24.60;14.93;;;;;;;4.17;73.88;100351.94;1432308;91;21929;-83
2022/02/15 04:51:30;;;;;;;26.30;16.03;;;;;;;4.17;73.75;100350.62;1434651;90;22579;-83
2022/02/15 04:54:01;;;;;;;23.03;14.50;;;;;;;4.17;74.42;100344.52;1437121;88;21845;-85
2022/02/15 04:56:28;;;;;;;27.85;16.35;;;;;;;4.17;74.42;100344.52;1435831;88;22167;-85
2022/02/15 04:58:55;;;;;;;24.73;15.40;;;;;;;4.17;74.52;100337.97;1432578;90;21361;-85
2022/02/15 05:01:22;;;;;;;26.97;16.10;;;;;;;4.12;74.40;100340.11;1416685;91;21907;-84
2022/02/15 05:03:50;;;;;;;31.40;14.97;;;;;;;4.22;73.98;100339.80;1430423;91;22900;-87
2022/02/15 05:06:17;;;;;;;28.07;17.37;;;;;;;4.24;74.29;100343.16;1432168;90;21905;-86
2022/02/15 05:08:44;;;;;;;29.17;15.90;;;;;;;4.27;74.12;100344.25;1432519;91;21858;-83
2022/02/15 05:11:11;;;;;;;28.83;16.43;;;;;;;4.30;74.70;100354.50;1432053;91;23021;-84
2022/02/15 05:13:38;;;;;;;27.53;15.03;;;;;;;4.30;74.69;100350.09;1430912;91;22417;-85
2022/02/15 05:16:06;;;;;;;23.70;14.87;;;;;;;4.30;74.69;100350.09;1431337;90;22140;-84
2022/02/15 05:18:33;;;;;;;26.37;15.07;;;;;;;4.32;75.57;100352.63;1432596;91;22179;-85
2022/02/15 05:21:02;;;;;;;30.00;16.50;;;;;;;4.35;75.19;100355.02;1433308;90;23064;-85
2022/02/15 05:23:30;;;;;;;27.73;14.80;;;;;;;4.33;78.02;100355.59;1431278;90;23031;-86
2022/02/15 05:25:58;;;;;;;24.30;13.87;;;;;;;4.36;76.62;100356.69;1430369;91;22058;-86
2022/02/15 05:28:26;;;;;;;21.77;13.37;;;;;;;4.36;76.62;100356.69;1436189;91;22149;-86
2022/02/15 05:30:53;;;;;;;21.43;12.57;;;;;;;4.39;76.81;100352.53;1434478;91;21954;-87
2022/02/15 05:33:20;;;;;;;22.43;13.73;;;;;;;4.36;77.80;100348.83;1435091;91;21970;-86
2022/02/15 05:35:48;;;;;;;22.43;12.73;;;;;;;4.33;79.99;100344.28;1435135;91;21924;-86
2022/02/15 05:38:15;;;;;;;22.73;13.33;;;;;;;4.33;79.99;100344.28;1432796;91;22895;-87
2022/02/15 05:40:42;;;;;;;25.73;13.53;;;;;;;4.41;78.32;100349.34;1431176;90;22020;-87
2022/02/15 05:43:13;;;;;;;24.57;13.67;;;;;;;4.41;78.32;100353.78;1426066;91;21876;-87
2022/02/15 05:45:38;;;;;;;22.50;13.03;;;;;;;4.47;80.06;100350.69;1435138;91;22112;-86
2022/02/15 05:48:05;;;;;;;22.33;11.20;;;;;;;4.47;80.06;100350.69;1428448;91;23281;-86
2022/02/15 05:50:51;;;;;;;19.47;11.87;;;;;;;4.46;79.41;100348.55;1433846;91;22234;-87
2022/02/15 05:53:20;;;;;;;22.37;12.73;;;;;;;4.46;79.41;100348.55;1436466;90;23557;-87
2022/02/15 05:55:48;;;;;;;19.83;11.90;;;;;;;4.51;80.66;100358.20;1440640;89;21917;-87
2022/02/15 05:58:16;;;;;;;24.40;12.27;;;;;;;4.55;80.12;100364.56;1442691;90;22071;-88
2022/02/15 06:00:49;;;;;;;27.93;13.30;;;;;;;4.55;80.12;100356.88;1428141;91;21914;-87
2022/02/15 06:06:12;;;;;;;19.90;11.20;;;;;;;4.55;80.89;100352.77;1408568;91;22087;-88
2022/02/15 06:08:40;;;;;;;18.10;10.87;;;;;;;4.60;80.98;100353.24;1412239;91;23083;-86
2022/02/15 06:11:07;;;;;;;24.63;13.57;;;;;;;4.64;80.42;100362.09;1428433;91;22323;-86
2022/02/15 06:13:34;;;;;;;20.80;11.50;;;;;;;4.63;80.63;100356.95;1430324;91;22107;-86
2022/02/15 06:16:01;;;;;;;18.00;11.33;;;;;;;4.67;81.26;100354.48;1437658;91;22063;-87
2022/02/15 06:18:28;;;;;;;24.77;12.63;;;;;;;4.64;81.88;100352.09;1417437;91;22085;-92
2022/02/15 06:20:55;;;;;;;30.73;12.47;;;;;;;4.71;81.31;100356.75;1432344;91;23049;-89
2022/02/15 06:23:22;;;;;;;22.13;12.03;;;;;;;4.74;81.23;100356.53;1425651;91;22152;-89
2022/02/15 06:25:49;;;;;;;24.50;13.10;;;;;;;4.78;81.17;100365.03;1429026;91;22108;-90
2022/02/15 06:28:16;;;;;;;18.97;11.60;;;;;;;4.81;80.91;100367.43;1427419;90;22161;-90
2022/02/15 06:30:43;;;;;;;17.63;12.43;;;;;;;4.78;82.73;100373.38;1415211;91;22166;-89
2022/02/15 06:33:10;;;;;;;21.43;13.30;;;;;;;4.80;81.92;100376.22;1414007;91;22072;-88
2022/02/15 06:35:37;;;;;;;17.27;11.27;;;;;;;4.82;80.86;100371.72;1427604;91;22243;-86
2022/02/15 06:38:04;;;;;;;20.20;11.67;;;;;;;4.84;82.44;100377.69;1423372;91;22218;-88
2022/02/15 06:53:42;;;;;;;14.67;8.87;;;;;;;5.98;78.92;100388.38;1487744;86;28527;-89
2022/02/15 06:56:09;;;;;;;17.13;10.83;;;;;;;5.74;79.37;100395.02;1462210;89;21547;-87
2022/02/15 06:58:35;;;;;;;18.00;11.57;;;;;;;5.62;79.11;100403.36;1466495;89;21488;-89
2022/02/15 07:01:01;;;;;;;17.93;10.47;;;;;;;5.53;79.58;100404.54;1459701;89;21391;-85
2022/02/15 07:03:27;;;;;;;21.17;11.93;;;;;;;5.37;80.39;100413.55;1468218;89;21466;-84
2022/02/15 07:05:53;;;;;;;25.03;14.83;;;;;;;5.23;82.12;100409.80;1462339;89;22419;-86
2022/02/15 07:08:19;;;;;;;20.33;12.80;;;;;;;5.16;82.01;100421.71;1453850;89;21481;-86
2022/02/15 07:10:46;;;;;;;19.23;12.00;;;;;;;5.10;82.57;100439.22;1457868;89;21480;-85
2022/02/15 07:13:13;;;;;;;19.27;11.87;;;;;;;4.97;84.05;100426.97;1466493;89;22369;-85
2022/02/15 07:15:39;;;;;;;20.47;13.17;;;;;;;5.00;82.77;100436.89;1457306;89;22122;-85
2022/02/15 07:18:05;;;;;;;23.80;14.80;;;;;;;4.92;84.01;100427.80;1453782;89;22839;-85
2022/02/15 07:20:33;;;;;;;24.43;13.00;;;;;;;4.87;85.05;100427.30;1453816;89;23070;-84
2022/02/15 07:22:59;;;;;;;22.17;12.90;;;;;;;4.88;84.85;100421.09;1463289;89;22131;-85
2022/02/15 07:25:25;;;;;;;18.23;12.27;;;;;;;4.89;84.32;100431.97;1462886;89;22108;-87
2022/02/15 07:27:52;;;;;;;19.87;13.33;;;;;;;4.89;84.06;100426.72;1463767;89;21480;-87
2022/02/15 07:30:18;;;;;;;19.77;13.53;;;;;;;4.88;85.12;100427.64;1462860;89;22117;-84
2022/02/15 07:32:44;;;;;;;19.77;12.70;;;;;;;4.87;85.08;100427.30;1462485;89;22205;-86
2022/02/15 07:35:10;;;;;;;16.90;10.90;;;;;;;4.91;84.50;100430.05;1464766;89;22183;-86
2022/02/15 07:37:36;;;;;;;19.37;12.23;;;;;;;4.94;84.51;100423.27;1443143;89;23730;-86
2022/02/15 07:40:03;;;;;;;22.33;12.80;;;;;;;4.98;84.37;100420.80;1466608;89;21437;-91
2022/02/15 07:42:29;;;;;;;21.73;14.27;;;;;;;5.01;84.10;100427.61;1461857;89;22313;-95
2022/02/15 07:45:02;;;;;;;22.50;14.07;;;;;;;5.03;85.43;100435.35;1413684;89;22219;-93
2022/02/15 07:47:28;;;;;;;28.23;17.67;;;;;;;5.06;84.20;100433.81;1443899;86;21467;-94
2022/02/15 07:49:54;;;;;;;23.50;13.53;;;;;;;5.08;84.76;100427.51;1443615;89;22136;-94
2022/02/15 07:52:20;;;;;;;21.07;13.07;;;;;;;5.11;84.67;100430.39;1449911;89;21555;-95
2022/02/15 07:54:46;;;;;;;18.97;12.03;;;;;;;5.14;84.84;100432.78;1437551;89;22169;-93
2022/02/15 07:57:12;;;;;;;19.17;12.33;;;;;;;5.16;85.16;100436.14;1445946;89;22145;-94
2022/02/15 07:59:38;;;;;;;24.77;13.73;;;;;;;5.19;84.65;100439.84;1466882;89;22167;-92
2022/02/15 08:02:04;;;;;;;20.07;12.63;;;;;;;5.18;85.42;100439.50;1459918;89;21421;-93
2022/02/15 08:04:30;;;;;;;21.03;13.17;;;;;;;5.19;84.67;100439.84;1433446;89;22146;-92
2022/02/15 08:06:56;;;;;;;22.97;12.97;;;;;;;5.19;84.94;100443.78;1449939;89;22131;-93
2022/02/15 08:09:24;;;;;;;19.83;13.30;;;;;;;5.17;85.48;100441.27;1456324;89;21502;-94
2022/02/15 08:11:55;;;;;;;26.73;14.97;;;;;;;5.18;85.77;100442.12;1454860;89;21511;-92
2022/02/15 08:14:18;;;;;;;25.43;13.70;;;;;;;5.17;85.75;100439.11;1477801;89;22121;-92
2022/02/15 08:16:44;;;;;;;24.70;14.70;;;;;;;5.18;85.06;100442.12;1484279;89;22254;-94
2022/02/15 08:19:10;;;;;;;22.77;12.90;;;;;;;5.21;84.51;100447.14;1446021;86;22427;-91
2022/02/15 08:21:37;;;;;;;24.07;14.50;;;;;;;5.24;84.95;100458.72;1416029;91;22213;-93
2022/02/15 08:24:03;;;;;;;26.50;15.97;;;;;;;5.26;85.18;100446.30;1423924;91;22239;-93
2022/02/15 08:26:31;;;;;;;24.90;17.23;;;;;;;5.27;84.61;100448.00;1415616;92;21480;-93
2022/02/15 08:28:57;;;;;;;26.70;17.50;;;;;;;5.36;84.16;100451.25;1417468;91;23213;-95
2022/02/15 08:31:23;;;;;;;28.17;16.40;;;;;;;5.40;84.31;100444.81;1399483;92;21369;-94
2022/02/15 08:33:49;;;;;;;20.23;13.53;;;;;;;5.46;84.30;100444.25;1429376;91;22120;-94
2022/02/15 08:36:15;;;;;;;20.90;14.50;;;;;;;5.48;84.13;100444.25;1408653;92;21480;-94
2022/02/15 08:38:41;;;;;;;25.60;16.57;;;;;;;5.56;84.22;100446.31;1423198;91;21479;-93
2022/02/15 08:41:11;;;;;;;35.00;21.00;;;;;;;5.64;83.79;100452.66;1413190;92;21516;-93
2022/02/15 08:43:37;;;;;;;40.80;25.10;;;;;;;5.70;83.58;100455.30;1409586;91;21486;-92
2022/02/15 08:46:03;;;;;;;36.93;22.60;;;;;;;5.75;83.42;100446.58;1415508;92;22077;-93
2022/02/15 08:48:29;;;;;;;23.60;15.67;;;;;;;5.80;83.33;100447.55;1425256;92;21487;-92
2022/02/15 08:50:55;;;;;;;25.70;14.63;;;;;;;5.86;83.26;100451.86;1422182;91;21457;-91
2022/02/15 08:53:21;;;;;;;31.37;16.93;;;;;;;5.91;83.19;100455.45;1426490;91;21472;-89
2022/02/15 08:55:48;;;;;;;19.37;12.53;;;;;;;5.97;83.09;100458.13;1426274;91;21547;-89
2022/02/15 08:58:14;;;;;;;21.73;13.03;;;;;;;6.02;83.51;100452.05;1424221;92;21629;-89
2022/02/15 09:00:40;;;;;;;31.13;17.53;;;;;;;6.01;83.54;100453.84;1428854;92;21420;-90
2022/02/15 09:03:06;;;;;;;21.67;15.57;;;;;;;6.03;83.35;100451.09;1421840;91;21620;-91
2022/02/15 09:05:33;;;;;;;27.73;15.03;;;;;;;6.02;83.49;100452.05;1420425;92;21524;-90
2022/02/15 09:07:59;;;;;;;18.97;13.60;;;;;;;6.00;83.13;100454.78;1411885;91;21686;-89
2022/02/15 09:10:25;;;;;;;21.50;13.20;;;;;;;6.01;82.97;100460.87;1410580;92;21483;-88
2022/02/15 09:12:52;;;;;;;24.60;14.57;;;;;;;5.98;82.55;100468.98;1421826;90;21460;-91
2022/02/15 09:15:18;;;;;;;23.50;15.93;;;;;;;5.93;82.53;100471.98;1415836;92;21480;-92
2022/02/15 09:17:44;;;;;;;29.33;17.03;;;;;;;5.94;82.68;100472.81;1400541;93;22341;-87
2022/02/15 09:20:11;;;;;;;25.67;14.27;;;;;;;5.97;83.01;100473.89;1398268;91;21462;-93
2022/02/15 09:22:39;;;;;;;24.23;14.90;;;;;;;6.01;83.33;100468.30;1414705;92;21412;-90
2022/02/15 09:25:07;;;;;;;23.47;14.90;;;;;;;6.09;83.23;100470.32;1399320;91;22026;-91
2022/02/15 09:27:35;;;;;;;23.97;14.50;;;;;;;6.15;83.49;100460.64;1430196;91;21744;-89
2022/02/15 09:30:02;;;;;;;25.00;13.63;;;;;;;6.16;83.75;100470.22;1434688;90;21633;-90
2022/02/15 09:32:29;;;;;;;23.90;13.77;;;;;;;6.17;83.48;100478.45;1439612;90;21603;-90
2022/02/15 09:34:55;;;;;;;22.73;14.53;;;;;;;6.18;83.16;100474.03;1424378;90;21471;-91
2022/02/15 09:37:22;;;;;;;24.93;15.43;;;;;;;6.17;82.91;100481.08;1430607;91;21485;-90
2022/02/15 09:39:48;;;;;;;26.90;15.53;;;;;;;6.15;82.78;100478.20;1442508;90;22432;-89
2022/02/15 09:42:15;;;;;;;27.33;16.73;;;;;;;6.12;83.33;100483.70;1437963;91;21463;-84
2022/02/15 09:44:42;;;;;;;25.53;16.17;;;;;;;6.13;83.11;100478.34;1430413;91;21992;-84
2022/02/15 09:47:11;;;;;;;29.67;17.33;;;;;;;6.16;83.17;100483.36;1411473;91;22505;-83
2022/02/15 09:49:49;;;;;;;29.50;17.30;;;;;;;6.18;83.61;100483.23;1436119;91;21597;-83
2022/02/15 09:52:18;;;;;;;34.23;17.77;;;;;;;6.18;83.31;100480.12;1401470;91;21492;-84
2022/02/15 09:54:45;;;;;;;30.53;18.67;;;;;;;6.19;83.25;100482.30;1412027;91;21457;-83
2022/02/15 09:57:15;;;;;;;25.17;16.87;;;;;;;6.19;83.32;100473.09;1432951;91;21522;-85
2022/02/15 09:59:41;;;;;;;26.40;17.87;;;;;;;6.17;83.16;100469.25;1426767;91;22513;-85
2022/02/15 10:02:16;;;;;;;21.67;15.03;;;;;;;6.18;83.32;100464.83;1422863;91;21530;-83
2022/02/15 10:04:42;;;;;;;28.67;17.23;;;;;;;6.20;83.50;100466.39;1427420;91;21648;-85
2022/02/15 10:07:11;;;;;;;26.53;15.63;;;;;;;6.23;83.74;100466.16;1435464;91;21411;-85
2022/02/15 10:09:41;;;;;;;27.40;18.17;;;;;;;6.26;83.85;100468.55;1432360;89;21754;-83
2022/02/15 10:12:28;;;;;;;28.00;18.93;;;;;;;6.22;84.20;100467.12;1452645;89;22786;-85
2022/02/15 10:14:55;;;;;;;32.17;22.07;;;;;;;6.17;84.75;100465.31;1462310;89;21493;-85
2022/02/15 10:17:24;;;;;;;33.07;22.77;;;;;;;6.10;85.36;100462.81;1453227;89;22139;-85
2022/02/15 10:19:53;;;;;;;36.07;22.87;;;;;;;6.03;85.60;100463.73;1458476;89;21486;-84
2022/02/15 10:22:21;;;;;;;34.87;21.37;;;;;;;5.98;86.40;100461.10;1449232;88;22348;-86
2022/02/15 10:25:02;;;;;;;33.00;20.50;;;;;;;6.00;86.19;100461.83;1441620;89;21546;-86
2022/02/15 10:27:32;;;;;;;20.40;15.05;;;;;;;6.05;85.93;100451.33;1452810;89;23436;-88
2022/02/15 10:29:59;;;;;;;27.85;17.25;;;;;;;6.13;86.02;100459.95;1455700;89;21441;-86
2022/02/15 10:32:26;;;;;;;28.60;18.27;;;;;;;6.20;85.89;100452.42;1433342;89;21464;-86
2022/02/15 10:34:59;;;;;;;26.30;18.73;;;;;;;6.27;85.76;100457.09;1455579;89;21706;-87
2022/02/15 10:37:28;;;;;;;39.23;21.70;;;;;;;6.32;85.53;100449.66;1454263;89;21507;-87
2022/02/15 10:40:04;;;;;;;36.50;22.37;;;;;;;6.34;85.28;100458.76;1451072;89;21471;-87
2022/02/15 10:42:31;;;;;;;27.23;18.37;;;;;;;6.32;85.47;100456.72;1451347;89;22458;-87
2022/02/15 10:45:04;;;;;;;31.27;19.67;;;;;;;6.35;85.24;100447.75;1452660;89;21659;-87
2022/02/15 10:47:34;;;;;;;34.53;21.73;;;;;;;6.37;85.63;100453.74;1458552;89;21441;-86
2022/02/15 10:50:08;;;;;;;45.67;32.67;;;;;;;6.42;85.82;100452.91;1458161;89;21545;-86
2022/02/15 10:52:37;;;;;;;45.63;30.47;;;;;;;6.43;85.91;100450.63;1446861;89;21455;-87
2022/02/15 10:55:05;;;;;;;40.40;25.23;;;;;;;6.43;86.06;100454.09;1448235;89;21471;-85
2022/02/15 10:57:31;;;;;;;41.23;24.40;;;;;;;6.44;85.78;100452.29;1448632;89;23736;-86
2022/02/15 11:00:00;;;;;;;31.47;20.57;;;;;;;6.45;85.78;100446.09;1455680;89;21716;-88
2022/02/15 11:02:31;;;;;;;30.60;19.17;;;;;;;6.48;85.56;100445.85;1435324;89;21492;-87
2022/02/15 11:05:02;;;;;;;31.37;18.30;;;;;;;6.52;85.76;100445.47;1450127;89;22591;-85
2022/02/15 11:07:31;;;;;;;28.93;16.40;;;;;;;6.52;86.00;100441.53;1448102;89;21583;-86
2022/02/15 11:10:21;;;;;;;27.47;17.50;;;;;;;6.52;86.49;100432.32;1446522;89;21375;-86
2022/02/15 11:12:55;;;;;;;33.13;20.00;;;;;;;6.56;86.01;100430.31;1443056;89;21472;-87
2022/02/15 11:15:31;;;;;;;27.83;19.10;;;;;;;6.57;86.24;100430.66;1433179;89;21576;-84
2022/02/15 11:18:03;;;;;;;31.80;20.17;;;;;;;6.56;86.21;100431.62;1430505;89;21441;-85
2022/02/15 11:20:50;;;;;;;31.80;21.27;;;;;;;6.57;86.58;100426.71;1445443;89;21620;-84
2022/02/15 11:23:03;;;;;;;35.03;23.53;;;;;;;6.59;86.51;100430.06;1424820;89;21679;-85
2022/02/15 11:25:36;;;;;;;33.23;22.60;;;;;;;6.64;86.71;100431.00;1395841;93;21517;-84
2022/02/15 11:28:11;;;;;;;33.63;22.97;;;;;;;6.73;86.78;100429.80;1435341;89;21515;-85
2022/02/15 11:31:01;;;;;;;40.00;24.53;;;;;;;6.84;86.89;100424.14;1388759;92;22719;-84
2022/02/15 11:33:38;;;;;;;38.67;23.00;;;;;;;6.96;86.49;100420.51;1414811;92;21464;-85
2022/02/15 11:36:13;;;;;;;36.20;22.83;;;;;;;7.11;86.31;100420.59;1367118;95;21568;-89
2022/02/15 11:38:40;;;;;;;32.73;21.33;;;;;;;7.21;86.32;100420.18;1415871;91;21486;-88